Airport View

Enter AWOS ICAO identifier for current METAR.

ex. KFNL

KRCR 011215Z AUTO 25004KT 10SM CLR 06/04 A2994 RMK AO2 LTG DSNT N

1 Oct 2020 12:27

Frequency: 118.775

Phone: 574-223-3560

Other Area AWOS: KASW - KGGP - KGUS - KOXI

TAF COR KGUS 010003Z 0100/0203 29015G25KT 9999 SKC QNH2984INS BECMG 0101/0102 29012KT 9999 SKC QNH2988INS BECMG 0117/0118 28015G25KT 9999 FEW080 510033 QNH3000INS BECMG 0123/0124 32006KT 9999 BKN025 510033 QNH3008INS TX16/0117Z TN03/0111Z LAST NO AMDS AFT 0103 NEXT 0113